Pismo Beach, California
Current Conditions -  °F | °C
As of 5:56 PM on Thursday 20 Nov 2014 (Local Time) from KSBP Reporting Station
Broken Clouds Broken Clouds  
Wind Chill: 58°   Ceiling: 6000
Heat Index: 58°   Visibility: 10mi
Dew Point: 53°   Wind: 6mph
Humidity: 84%   Direction: 200°SSW
Pressure: 30.05"   Gusts: NA
Location:  35.16°N, 120.66°W
Report Text: KSBP 210156Z 20005KT 10SM BKN060 BKN100 14/12 A3005 RMK AO2 RAB13E23 SLP174 P0000 T01440117
Loading
Personal Weather Stations






























Interactive Weather Map New forecast layout! Learn more

10-Day Weather Forecast

Advertisements
Track Severe Weather on mobile